sensor_id;sensor_type;location;lat;lon;timestamp;pressure;altitude;pressure_sealevel;temperature;humidity
13422;BME280;6782;55.904;13.396;2023-11-19T00:00:36;101219.03;;;2.34;100.00
13422;BME280;6782;55.904;13.396;2023-11-19T00:03:23;101205.06;;;2.29;100.00
13422;BME280;6782;55.904;13.396;2023-11-19T00:06:14;101200.72;;;2.28;100.00
13422;BME280;6782;55.904;13.396;2023-11-19T00:09:03;101181.56;;;2.23;100.00
13422;BME280;6782;55.904;13.396;2023-11-19T00:11:54;101167.72;;;2.25;100.00
13422;BME280;6782;55.904;13.396;2023-11-19T00:14:42;101162.47;;;2.22;100.00
13422;BME280;6782;55.904;13.396;2023-11-19T00:17:30;101161.69;;;2.28;100.00
13422;BME280;6782;55.904;13.396;2023-11-19T00:20:18;101153.97;;;2.32;100.00
13422;BME280;6782;55.904;13.396;2023-11-19T00:23:09;101150.59;;;2.39;100.00
13422;BME280;6782;55.904;13.396;2023-11-19T00:25:56;101141.91;;;2.37;100.00
13422;BME280;6782;55.904;13.396;2023-11-19T00:28:43;101141.00;;;2.37;100.00
13422;BME280;6782;55.904;13.396;2023-11-19T00:31:31;101130.59;;;2.37;100.00
13422;BME280;6782;55.904;13.396;2023-11-19T00:34:20;101122.00;;;2.41;100.00
13422;BME280;6782;55.904;13.396;2023-11-19T00:37:08;101133.44;;;2.50;100.00
13422;BME280;6782;55.904;13.396;2023-11-19T00:39:58;101123.91;;;2.51;100.00
13422;BME280;6782;55.904;13.396;2023-11-19T00:42:45;101115.28;;;2.55;100.00
13422;BME280;6782;55.904;13.396;2023-11-19T00:45:33;101105.78;;;2.60;100.00
13422;BME280;6782;55.904;13.396;2023-11-19T00:48:20;101100.59;;;2.60;100.00
13422;BME280;6782;55.904;13.396;2023-11-19T00:51:08;101093.66;;;2.62;100.00
13422;BME280;6782;55.904;13.396;2023-11-19T00:53:57;101088.59;;;2.71;100.00
13422;BME280;6782;55.904;13.396;2023-11-19T00:56:47;101078.19;;;2.73;100.00
13422;BME280;6782;55.904;13.396;2023-11-19T00:59:34;101079.06;;;2.73;100.00
13422;BME280;6782;55.904;13.396;2023-11-19T01:02:22;101082.56;;;2.75;100.00
13422;BME280;6782;55.904;13.396;2023-11-19T01:05:09;101077.47;;;2.81;100.00
13422;BME280;6782;55.904;13.396;2023-11-19T01:08:00;101081.03;;;2.89;100.00
13422;BME280;6782;55.904;13.396;2023-11-19T01:10:51;101069.78;;;2.93;100.00
13422;BME280;6782;55.904;13.396;2023-11-19T01:13:40;101061.19;;;2.99;100.00
13422;BME280;6782;55.904;13.396;2023-11-19T01:16:29;101052.50;;;2.98;100.00
13422;BME280;6782;55.904;13.396;2023-11-19T01:19:19;101044.69;;;2.98;100.00
13422;BME280;6782;55.904;13.396;2023-11-19T01:22:07;101046.47;;;3.02;100.00
13422;BME280;6782;55.904;13.396;2023-11-19T01:24:54;101037.78;;;3.00;100.00
13422;BME280;6782;55.904;13.396;2023-11-19T01:27:44;101032.56;;;3.00;100.00
13422;BME280;6782;55.904;13.396;2023-11-19T01:30:44;101013.50;;;3.04;100.00
13422;BME280;6782;55.904;13.396;2023-11-19T01:33:45;101003.03;;;3.00;100.00
13422;BME280;6782;55.904;13.396;2023-11-19T01:36:33;100987.38;;;2.98;100.00
13422;BME280;6782;55.904;13.396;2023-11-19T01:39:22;100989.19;;;3.05;100.00
13422;BME280;6782;55.904;13.396;2023-11-19T01:42:12;100971.84;;;3.07;100.00
13422;BME280;6782;55.904;13.396;2023-11-19T01:45:01;100967.53;;;3.08;100.00
13422;BME280;6782;55.904;13.396;2023-11-19T01:47:55;100970.16;;;3.12;100.00
13422;BME280;6782;55.904;13.396;2023-11-19T01:50:43;100963.25;;;3.17;100.00
13422;BME280;6782;55.904;13.396;2023-11-19T01:53:37;100955.41;;;3.13;100.00
13422;BME280;6782;55.904;13.396;2023-11-19T01:56:39;100954.56;;;3.18;100.00
13422;BME280;6782;55.904;13.396;2023-11-19T01:59:28;100946.81;;;3.25;100.00
13422;BME280;6782;55.904;13.396;2023-11-19T02:02:15;100933.81;;;3.26;100.00
13422;BME280;6782;55.904;13.396;2023-11-19T02:05:08;100919.94;;;3.29;100.00
13422;BME280;6782;55.904;13.396;2023-11-19T02:07:55;100901.69;;;3.32;100.00
13422;BME280;6782;55.904;13.396;2023-11-19T02:10:42;100877.41;;;3.31;100.00
13422;BME280;6782;55.904;13.396;2023-11-19T02:13:30;100883.53;;;3.38;100.00
13422;BME280;6782;55.904;13.396;2023-11-19T02:16:17;100873.91;;;3.32;100.00
13422;BME280;6782;55.904;13.396;2023-11-19T02:19:04;100878.34;;;3.41;100.00
13422;BME280;6782;55.904;13.396;2023-11-19T02:22:03;100875.75;;;3.45;100.00
13422;BME280;6782;55.904;13.396;2023-11-19T02:25:00;100873.13;;;3.47;100.00
13422;BME280;6782;55.904;13.396;2023-11-19T02:27:57;100871.34;;;3.37;100.00
13422;BME280;6782;55.904;13.396;2023-11-19T02:30:45;100861.69;;;3.27;100.00
13422;BME280;6782;55.904;13.396;2023-11-19T02:33:33;100859.09;;;3.27;100.00
13422;BME280;6782;55.904;13.396;2023-11-19T02:36:20;100849.53;;;3.27;100.00
13422;BME280;6782;55.904;13.396;2023-11-19T02:39:08;100838.25;;;3.27;100.00
13422;BME280;6782;55.904;13.396;2023-11-19T02:42:09;100836.56;;;3.33;100.00
13422;BME280;6782;55.904;13.396;2023-11-19T02:44:59;100822.72;;;3.39;100.00
13422;BME280;6782;55.904;13.396;2023-11-19T02:48:00;100821.84;;;3.40;100.00
13422;BME280;6782;55.904;13.396;2023-11-19T02:50:48;100814.09;;;3.52;100.00
13422;BME280;6782;55.904;13.396;2023-11-19T02:53:41;100813.22;;;3.53;100.00
13422;BME280;6782;55.904;13.396;2023-11-19T02:56:30;100805.44;;;3.56;100.00
13422;BME280;6782;55.904;13.396;2023-11-19T02:59:22;100806.31;;;3.56;100.00
13422;BME280;6782;55.904;13.396;2023-11-19T03:02:27;100801.97;;;3.60;100.00
13422;BME280;6782;55.904;13.396;2023-11-19T03:05:19;100802.88;;;3.63;100.00
13422;BME280;6782;55.904;13.396;2023-11-19T03:08:09;100802.00;;;3.66;100.00
13422;BME280;6782;55.904;13.396;2023-11-19T03:11:11;100801.13;;;3.65;100.00
13422;BME280;6782;55.904;13.396;2023-11-19T03:14:02;100802.00;;;3.66;100.00
13422;BME280;6782;55.904;13.396;2023-11-19T03:17:03;100791.59;;;3.66;100.00
13422;BME280;6782;55.904;13.396;2023-11-19T03:20:11;100785.53;;;3.67;100.00
13422;BME280;6782;55.904;13.396;2023-11-19T03:23:01;100779.41;;;3.68;100.00
13422;BME280;6782;55.904;13.396;2023-11-19T03:25:50;100787.25;;;3.72;100.00
13422;BME280;6782;55.904;13.396;2023-11-19T03:28:53;100783.78;;;3.75;100.00
13422;BME280;6782;55.904;13.396;2023-11-19T03:31:55;100788.22;;;3.85;100.00
13422;BME280;6782;55.904;13.396;2023-11-19T03:34:42;100776.88;;;3.77;100.00
13422;BME280;6782;55.904;13.396;2023-11-19T03:37:39;100774.25;;;3.77;100.00
13422;BME280;6782;55.904;13.396;2023-11-19T03:40:28;100757.75;;;3.81;100.00
13422;BME280;6782;55.904;13.396;2023-11-19T03:43:31;100753.44;;;3.91;100.00
13422;BME280;6782;55.904;13.396;2023-11-19T03:46:39;100738.69;;;3.93;100.00
13422;BME280;6782;55.904;13.396;2023-11-19T03:49:35;100741.28;;;3.97;100.00
13422;BME280;6782;55.904;13.396;2023-11-19T03:52:23;100726.53;;;4.05;100.00
13422;BME280;6782;55.904;13.396;2023-11-19T03:55:26;100720.47;;;4.12;100.00
13422;BME280;6782;55.904;13.396;2023-11-19T03:58:15;100711.75;;;4.10;100.00
13422;BME280;6782;55.904;13.396;2023-11-19T04:01:04;100691.75;;;4.11;100.00
13422;BME280;6782;55.904;13.396;2023-11-19T04:03:51;100686.53;;;4.14;100.00
13422;BME280;6782;55.904;13.396;2023-11-19T04:06:39;100672.59;;;4.12;100.00
13422;BME280;6782;55.904;13.396;2023-11-19T04:09:28;100676.13;;;4.18;100.00
13422;BME280;6782;55.904;13.396;2023-11-19T04:12:18;100664.78;;;4.19;100.00
13422;BME280;6782;55.904;13.396;2023-11-19T04:15:19;100650.00;;;4.17;100.00
13422;BME280;6782;55.904;13.396;2023-11-19T04:18:07;100652.59;;;4.21;100.00
13422;BME280;6782;55.904;13.396;2023-11-19T04:21:08;100656.09;;;4.29;100.00
13422;BME280;6782;55.904;13.396;2023-11-19T04:24:04;100636.97;;;4.33;100.00
13422;BME280;6782;55.904;13.396;2023-11-19T04:26:52;100623.03;;;4.34;100.00
13422;BME280;6782;55.904;13.396;2023-11-19T04:29:41;100607.34;;;4.31;100.00
13422;BME280;6782;55.904;13.396;2023-11-19T04:32:29;100602.13;;;4.31;100.00
13422;BME280;6782;55.904;13.396;2023-11-19T04:35:18;100583.00;;;4.29;100.00
13422;BME280;6782;55.904;13.396;2023-11-19T04:38:11;100575.16;;;4.37;100.00
13422;BME280;6782;55.904;13.396;2023-11-19T04:41:01;100576.91;;;4.38;100.00
13422;BME280;6782;55.904;13.396;2023-11-19T04:43:51;100559.50;;;4.29;100.00
13422;BME280;6782;55.904;13.396;2023-11-19T04:46:41;100553.41;;;4.39;100.00
13422;BME280;6782;55.904;13.396;2023-11-19T04:49:42;100550.81;;;4.36;100.00
13422;BME280;6782;55.904;13.396;2023-11-19T04:52:43;100553.41;;;4.42;100.00
13422;BME280;6782;55.904;13.396;2023-11-19T04:55:31;100543.81;;;4.51;100.00
13422;BME280;6782;55.904;13.396;2023-11-19T04:58:20;100535.16;;;4.44;100.00
13422;BME280;6782;55.904;13.396;2023-11-19T05:01:13;100528.16;;;4.44;100.00
13422;BME280;6782;55.904;13.396;2023-11-19T05:04:04;100522.97;;;4.41;100.00
13422;BME280;6782;55.904;13.396;2023-11-19T05:06:53;100519.44;;;4.50;100.00
13422;BME280;6782;55.904;13.396;2023-11-19T05:09:40;100519.44;;;4.50;100.00
13422;BME280;6782;55.904;13.396;2023-11-19T05:12:28;100497.69;;;4.56;100.00
13422;BME280;6782;55.904;13.396;2023-11-19T05:15:17;100490.69;;;4.55;100.00
13422;BME280;6782;55.904;13.396;2023-11-19T05:18:04;100487.22;;;4.59;100.00
13422;BME280;6782;55.904;13.396;2023-11-19T05:20:56;100479.38;;;4.57;100.00
13422;BME280;6782;55.904;13.396;2023-11-19T05:23:44;100482.00;;;4.62;100.00
13422;BME280;6782;55.904;13.396;2023-11-19T05:26:32;100454.13;;;4.58;100.00
13422;BME280;6782;55.904;13.396;2023-11-19T05:29:21;100448.91;;;4.58;100.00
13422;BME280;6782;55.904;13.396;2023-11-19T05:32:08;100452.38;;;4.66;100.00
13422;BME280;6782;55.904;13.396;2023-11-19T05:35:04;100439.34;;;4.64;100.00
13422;BME280;6782;55.904;13.396;2023-11-19T05:37:56;100436.72;;;4.63;100.00
13422;BME280;6782;55.904;13.396;2023-11-19T05:40:44;100428.00;;;4.67;100.00
13422;BME280;6782;55.904;13.396;2023-11-19T05:43:45;100424.50;;;4.71;100.00
13422;BME280;6782;55.904;13.396;2023-11-19T05:46:46;100409.72;;;4.64;100.00
13422;BME280;6782;55.904;13.396;2023-11-19T05:49:38;100403.59;;;4.68;100.00
13422;BME280;6782;55.904;13.396;2023-11-19T05:52:29;100405.34;;;4.66;100.00
13422;BME280;6782;55.904;13.396;2023-11-19T05:55:21;100394.06;;;4.67;100.00
13422;BME280;6782;55.904;13.396;2023-11-19T05:58:09;100384.44;;;4.72;100.00
13422;BME280;6782;55.904;13.396;2023-11-19T06:00:58;100370.53;;;4.67;100.00
13422;BME280;6782;55.904;13.396;2023-11-19T06:03:46;100374.00;;;4.75;100.00
13422;BME280;6782;55.904;13.396;2023-11-19T06:06:41;100358.31;;;4.75;100.00
13422;BME280;6782;55.904;13.396;2023-11-19T06:09:29;100361.78;;;4.77;100.00
13422;BME280;6782;55.904;13.396;2023-11-19T06:12:24;100355.66;;;4.79;100.00
13422;BME280;6782;55.904;13.396;2023-11-19T06:15:13;100349.59;;;4.73;100.00
13422;BME280;6782;55.904;13.396;2023-11-19T06:18:04;100346.97;;;4.73;100.00
13422;BME280;6782;55.904;13.396;2023-11-19T06:20:55;100337.41;;;4.75;100.00
13422;BME280;6782;55.904;13.396;2023-11-19T06:23:57;100338.22;;;4.83;100.00
13422;BME280;6782;55.904;13.396;2023-11-19T06:26:45;100329.53;;;4.82;100.00
13422;BME280;6782;55.904;13.396;2023-11-19T06:29:35;100321.69;;;4.78;100.00
13422;BME280;6782;55.904;13.396;2023-11-19T06:32:36;100321.66;;;4.84;100.00
13422;BME280;6782;55.904;13.396;2023-11-19T06:35:24;100314.75;;;4.80;100.00
13422;BME280;6782;55.904;13.396;2023-11-19T06:38:12;100318.22;;;4.82;100.00
13422;BME280;6782;55.904;13.396;2023-11-19T06:41:01;100307.78;;;4.79;100.00
13422;BME280;6782;55.904;13.396;2023-11-19T06:43:48;100305.97;;;4.87;100.00
13422;BME280;6782;55.904;13.396;2023-11-19T06:46:46;100298.16;;;4.84;100.00
13422;BME280;6782;55.904;13.396;2023-11-19T06:49:47;100299.00;;;4.89;100.00
13422;BME280;6782;55.904;13.396;2023-11-19T06:52:35;100292.91;;;4.90;100.00
13422;BME280;6782;55.904;13.396;2023-11-19T06:55:23;100301.56;;;4.93;100.00
13422;BME280;6782;55.904;13.396;2023-11-19T06:58:11;100292.88;;;4.93;100.00
13422;BME280;6782;55.904;13.396;2023-11-19T07:01:07;100284.16;;;4.91;100.00
13422;BME280;6782;55.904;13.396;2023-11-19T07:04:00;100286.75;;;4.94;100.00
13422;BME280;6782;55.904;13.396;2023-11-19T07:06:53;100287.59;;;4.99;100.00
13422;BME280;6782;55.904;13.396;2023-11-19T07:09:41;100281.50;;;4.97;100.00
13422;BME280;6782;55.904;13.396;2023-11-19T07:12:30;100274.53;;;4.96;100.00
13422;BME280;6782;55.904;13.396;2023-11-19T07:15:31;100274.53;;;4.99;100.00
13422;BME280;6782;55.904;13.396;2023-11-19T07:18:23;100268.44;;;4.97;100.00
13422;BME280;6782;55.904;13.396;2023-11-19T07:21:16;100275.28;;;5.08;100.00
13422;BME280;6782;55.904;13.396;2023-11-19T07:24:25;100271.88;;;5.02;100.00
13422;BME280;6782;55.904;13.396;2023-11-19T07:27:27;100268.34;;;5.07;100.00
13422;BME280;6782;55.904;13.396;2023-11-19T07:30:20;100259.66;;;5.04;100.00
13422;BME280;6782;55.904;13.396;2023-11-19T07:33:07;100255.25;;;5.12;100.00
13422;BME280;6782;55.904;13.396;2023-11-19T07:35:59;100246.59;;;5.07;100.00
13422;BME280;6782;55.904;13.396;2023-11-19T07:38:53;100243.03;;;5.11;100.00
13422;BME280;6782;55.904;13.396;2023-11-19T07:42:00;100231.81;;;5.01;100.00
13422;BME280;6782;55.904;13.396;2023-11-19T07:44:48;100238.78;;;5.05;100.00
13422;BME280;6782;55.904;13.396;2023-11-19T07:47:43;100228.25;;;5.10;100.00
13422;BME280;6782;55.904;13.396;2023-11-19T07:50:38;100236.91;;;5.18;100.00
13422;BME280;6782;55.904;13.396;2023-11-19T07:53:26;100233.38;;;5.19;100.00
13422;BME280;6782;55.904;13.396;2023-11-19T07:56:15;100233.41;;;5.18;100.00
13422;BME280;6782;55.904;13.396;2023-11-19T07:59:07;100234.25;;;5.21;100.00
13422;BME280;6782;55.904;13.396;2023-11-19T08:02:08;100230.75;;;5.22;100.00
13422;BME280;6782;55.904;13.396;2023-11-19T08:05:10;100231.59;;;5.24;100.00
13422;BME280;6782;55.904;13.396;2023-11-19T08:07:58;100228.94;;;5.30;100.00
13422;BME280;6782;55.904;13.396;2023-11-19T08:10:59;100217.63;;;5.28;100.00
13422;BME280;6782;55.904;13.396;2023-11-19T08:13:56;100215.06;;;5.22;100.00
13422;BME280;6782;55.904;13.396;2023-11-19T08:16:44;100209.84;;;5.22;100.00
13422;BME280;6782;55.904;13.396;2023-11-19T08:19:32;100219.38;;;5.28;100.00
13422;BME280;6782;55.904;13.396;2023-11-19T08:22:23;100201.97;;;5.25;100.00
13422;BME280;6782;55.904;13.396;2023-11-19T08:25:30;100182.00;;;5.17;100.00
13422;BME280;6782;55.904;13.396;2023-11-19T08:28:27;100186.22;;;5.31;100.00
13422;BME280;6782;55.904;13.396;2023-11-19T08:31:26;100181.88;;;5.30;100.00
13422;BME280;6782;55.904;13.396;2023-11-19T08:34:39;100169.72;;;5.26;100.00
13422;BME280;6782;55.904;13.396;2023-11-19T08:37:28;100164.53;;;5.23;100.00
13422;BME280;6782;55.904;13.396;2023-11-19T08:40:24;100154.03;;;5.26;100.00
13422;BME280;6782;55.904;13.396;2023-11-19T08:43:13;100145.38;;;5.21;100.00
13422;BME280;6782;55.904;13.396;2023-11-19T08:46:01;100148.75;;;5.29;100.00
13422;BME280;6782;55.904;13.396;2023-11-19T08:49:01;100143.63;;;5.23;100.00
13422;BME280;6782;55.904;13.396;2023-11-19T08:51:51;100140.09;;;5.24;100.00
13422;BME280;6782;55.904;13.396;2023-11-19T08:54:43;100142.56;;;5.38;100.00
13422;BME280;6782;55.904;13.396;2023-11-19T08:57:33;100128.66;;;5.34;100.00
13422;BME280;6782;55.904;13.396;2023-11-19T09:00:21;100124.31;;;5.33;100.00
13422;BME280;6782;55.904;13.396;2023-11-19T09:03:09;100119.94;;;5.35;100.00
13422;BME280;6782;55.904;13.396;2023-11-19T09:06:11;100107.81;;;5.31;100.00
13422;BME280;6782;55.904;13.396;2023-11-19T09:08:58;100101.66;;;5.32;100.00
13422;BME280;6782;55.904;13.396;2023-11-19T09:11:49;100096.38;;;5.37;100.00
13422;BME280;6782;55.904;13.396;2023-11-19T09:14:36;100089.44;;;5.34;100.00
13422;BME280;6782;55.904;13.396;2023-11-19T09:17:24;100091.97;;;5.40;100.00
13422;BME280;6782;55.904;13.396;2023-11-19T09:20:13;100082.47;;;5.36;100.00
13422;BME280;6782;55.904;13.396;2023-11-19T09:23:15;100072.88;;;5.35;100.00
13422;BME280;6782;55.904;13.396;2023-11-19T09:26:03;100065.91;;;5.34;100.00
13422;BME280;6782;55.904;13.396;2023-11-19T09:28:51;100056.34;;;5.33;100.00
13422;BME280;6782;55.904;13.396;2023-11-19T09:31:46;100049.41;;;5.31;100.00
13422;BME280;6782;55.904;13.396;2023-11-19T09:34:35;100045.19;;;5.21;100.00
13422;BME280;6782;55.904;13.396;2023-11-19T09:37:24;100044.28;;;5.23;100.00
13422;BME280;6782;55.904;13.396;2023-11-19T09:40:16;100026.91;;;5.19;100.00
13422;BME280;6782;55.904;13.396;2023-11-19T09:43:07;100024.31;;;5.18;100.00
13422;BME280;6782;55.904;13.396;2023-11-19T09:46:10;100030.38;;;5.20;100.00
13422;BME280;6782;55.904;13.396;2023-11-19T09:49:00;100019.25;;;5.05;100.00
13422;BME280;6782;55.904;13.396;2023-11-19T09:51:50;100032.22;;;5.13;100.00
13422;BME280;6782;55.904;13.396;2023-11-19T09:54:38;100019.31;;;4.99;100.00
13422;BME280;6782;55.904;13.396;2023-11-19T09:57:32;100034.88;;;5.08;100.00
13422;BME280;6782;55.904;13.396;2023-11-19T10:00:23;100039.38;;;4.96;100.00
13422;BME280;6782;55.904;13.396;2023-11-19T10:03:11;100037.69;;;4.95;100.00
13422;BME280;6782;55.904;13.396;2023-11-19T10:06:00;100046.34;;;4.97;100.00
13422;BME280;6782;55.904;13.396;2023-11-19T10:08:54;100030.75;;;4.91;100.00
13422;BME280;6782;55.904;13.396;2023-11-19T10:11:54;100041.19;;;4.91;100.00
13422;BME280;6782;55.904;13.396;2023-11-19T10:14:46;100035.19;;;4.84;100.00
13422;BME280;6782;55.904;13.396;2023-11-19T10:17:51;100040.41;;;4.84;100.00
13422;BME280;6782;55.904;13.396;2023-11-19T10:20:40;100026.66;;;4.69;100.00
13422;BME280;6782;55.904;13.396;2023-11-19T10:23:30;100038.69;;;4.82;100.00
13422;BME280;6782;55.904;13.396;2023-11-19T10:26:20;100048.25;;;4.83;100.00
13422;BME280;6782;55.904;13.396;2023-11-19T10:29:25;100048.38;;;4.74;100.00
13422;BME280;6782;55.904;13.396;2023-11-19T10:32:35;100059.59;;;4.82;100.00
13422;BME280;6782;55.904;13.396;2023-11-19T10:35:29;100063.94;;;4.83;100.00
13422;BME280;6782;55.904;13.396;2023-11-19T10:38:20;100056.97;;;4.85;100.00
13422;BME280;6782;55.904;13.396;2023-11-19T10:41:09;100076.16;;;4.81;100.00
13422;BME280;6782;55.904;13.396;2023-11-19T10:43:59;100068.31;;;4.81;100.00
13422;BME280;6782;55.904;13.396;2023-11-19T10:46:57;100070.03;;;4.80;100.00
13422;BME280;6782;55.904;13.396;2023-11-19T10:49:47;100082.22;;;4.83;100.00
13422;BME280;6782;55.904;13.396;2023-11-19T10:52:34;100083.09;;;4.80;100.00
13422;BME280;6782;55.904;13.396;2023-11-19T10:55:43;100074.50;;;4.71;100.00
13422;BME280;6782;55.904;13.396;2023-11-19T10:58:44;100076.25;;;4.72;100.00
13422;BME280;6782;55.904;13.396;2023-11-19T11:01:43;100088.34;;;4.80;100.00
13422;BME280;6782;55.904;13.396;2023-11-19T11:04:33;100090.13;;;4.77;100.00
13422;BME280;6782;55.904;13.396;2023-11-19T11:07:42;100095.28;;;4.81;100.00
13422;BME280;6782;55.904;13.396;2023-11-19T11:10:32;100093.56;;;4.80;100.00
13422;BME280;6782;55.904;13.396;2023-11-19T11:13:23;100103.91;;;4.88;100.00
13422;BME280;6782;55.904;13.396;2023-11-19T11:16:14;100111.00;;;4.80;100.00
13422;BME280;6782;55.904;13.396;2023-11-19T11:19:07;100116.13;;;4.86;100.00
13422;BME280;6782;55.904;13.396;2023-11-19T11:21:55;100108.41;;;4.77;100.00
13422;BME280;6782;55.904;13.396;2023-11-19T11:25:18;100100.56;;;4.77;100.00
13422;BME280;6782;55.904;13.396;2023-11-19T11:28:22;100109.22;;;4.82;100.00
13422;BME280;6782;55.904;13.396;2023-11-19T11:31:24;100109.22;;;4.80;100.00
13422;BME280;6782;55.904;13.396;2023-11-19T11:34:44;100112.69;;;4.84;100.00
13422;BME280;6782;55.904;13.396;2023-11-19T11:37:40;100104.84;;;4.84;100.00
13422;BME280;6782;55.904;13.396;2023-11-19T11:40:35;100118.78;;;4.84;100.00
13422;BME280;6782;55.904;13.396;2023-11-19T11:43:45;100099.69;;;4.78;100.00
13422;BME280;6782;55.904;13.396;2023-11-19T11:46:59;100107.50;;;4.81;100.00
13422;BME280;6782;55.904;13.396;2023-11-19T11:49:46;100110.03;;;4.85;100.00
13422;BME280;6782;55.904;13.396;2023-11-19T11:56:02;100103.09;;;4.83;100.00
13422;BME280;6782;55.904;13.396;2023-11-19T11:58:52;100103.09;;;4.87;100.00
13422;BME280;6782;55.904;13.396;2023-11-19T12:01:57;100097.84;;;4.87;100.00
13422;BME280;6782;55.904;13.396;2023-11-19T12:04:48;100109.94;;;4.96;100.00
13422;BME280;6782;55.904;13.396;2023-11-19T12:07:38;100103.88;;;4.94;100.00
13422;BME280;6782;55.904;13.396;2023-11-19T12:10:25;100102.16;;;4.93;100.00
13422;BME280;6782;55.904;13.396;2023-11-19T12:13:15;100096.84;;;4.99;100.00
13422;BME280;6782;55.904;13.396;2023-11-19T12:16:08;100101.13;;;5.04;100.00
13422;BME280;6782;55.904;13.396;2023-11-19T12:18:56;100082.13;;;4.92;100.00
13422;BME280;6782;55.904;13.396;2023-11-19T12:21:50;100082.91;;;5.00;100.00
13422;BME280;6782;55.904;13.396;2023-11-19T12:24:40;100079.47;;;4.95;100.00
13422;BME280;6782;55.904;13.396;2023-11-19T12:27:28;100068.13;;;4.97;100.00
13422;BME280;6782;55.904;13.396;2023-11-19T12:30:21;100060.38;;;4.90;100.00
13422;BME280;6782;55.904;13.396;2023-11-19T12:33:09;100049.91;;;4.93;100.00
13422;BME280;6782;55.904;13.396;2023-11-19T12:35:57;100052.38;;;5.05;100.00
13422;BME280;6782;55.904;13.396;2023-11-19T12:38:46;100035.06;;;4.95;100.00
13422;BME280;6782;55.904;13.396;2023-11-19T12:41:48;100041.06;;;5.03;100.00
13422;BME280;6782;55.904;13.396;2023-11-19T12:44:36;100025.44;;;5.00;100.00
13422;BME280;6782;55.904;13.396;2023-11-19T12:47:25;100027.09;;;5.04;100.00
13422;BME280;6782;55.904;13.396;2023-11-19T12:50:13;100014.88;;;5.06;100.00
13422;BME280;6782;55.904;13.396;2023-11-19T12:53:00;99989.88;;;4.87;100.00
13422;BME280;6782;55.904;13.396;2023-11-19T12:55:48;99994.97;;;4.97;100.00
13422;BME280;6782;55.904;13.396;2023-11-19T12:58:36;99980.16;;;4.98;100.00
13422;BME280;6782;55.904;13.396;2023-11-19T13:01:24;99970.66;;;4.92;100.00
13422;BME280;6782;55.904;13.396;2023-11-19T13:04:19;99961.00;;;4.96;100.00
13422;BME280;6782;55.904;13.396;2023-11-19T13:07:06;99955.97;;;4.84;100.00
13422;BME280;6782;55.904;13.396;2023-11-19T13:10:01;99952.47;;;4.83;100.00
13422;BME280;6782;55.904;13.396;2023-11-19T13:13:00;99945.47;;;4.87;100.00
13422;BME280;6782;55.904;13.396;2023-11-19T13:15:48;99936.69;;;4.91;100.00
13422;BME280;6782;55.904;13.396;2023-11-19T13:18:35;99926.25;;;4.91;100.00
13422;BME280;6782;55.904;13.396;2023-11-19T13:21:24;99915.91;;;4.85;100.00
13422;BME280;6782;55.904;13.396;2023-11-19T13:24:13;99907.25;;;4.80;100.00
13422;BME280;6782;55.904;13.396;2023-11-19T13:27:01;99899.44;;;4.80;100.00
13422;BME280;6782;55.904;13.396;2023-11-19T13:29:48;99892.53;;;4.74;100.00
13422;BME280;6782;55.904;13.396;2023-11-19T13:32:35;99898.56;;;4.78;100.00
13422;BME280;6782;55.904;13.396;2023-11-19T13:35:23;99894.25;;;4.75;100.00
13422;BME280;6782;55.904;13.396;2023-11-19T13:38:12;99889.88;;;4.77;100.00
13422;BME280;6782;55.904;13.396;2023-11-19T13:41:00;99871.69;;;4.71;100.00
13422;BME280;6782;55.904;13.396;2023-11-19T13:43:47;99876.00;;;4.74;100.00
13422;BME280;6782;55.904;13.396;2023-11-19T13:46:34;99875.06;;;4.79;100.00
13422;BME280;6782;55.904;13.396;2023-11-19T13:49:22;99876.75;;;4.80;100.00
13422;BME280;6782;55.904;13.396;2023-11-19T13:52:09;99862.06;;;4.75;100.00
13422;BME280;6782;55.904;13.396;2023-11-19T13:54:59;99853.38;;;4.73;100.00
13422;BME280;6782;55.904;13.396;2023-11-19T13:57:46;99858.56;;;4.76;100.00
13422;BME280;6782;55.904;13.396;2023-11-19T14:00:34;99843.69;;;4.81;100.00
13422;BME280;6782;55.904;13.396;2023-11-19T14:03:22;99849.72;;;4.83;100.00
13422;BME280;6782;55.904;13.396;2023-11-19T14:06:09;99840.22;;;4.79;100.00
13422;BME280;6782;55.904;13.396;2023-11-19T14:09:00;99847.28;;;4.74;100.00
13422;BME280;6782;55.904;13.396;2023-11-19T14:11:49;99853.25;;;4.82;100.00
13422;BME280;6782;55.904;13.396;2023-11-19T14:14:37;99855.94;;;4.77;100.00
13422;BME280;6782;55.904;13.396;2023-11-19T14:17:25;99853.31;;;4.76;100.00
13422;BME280;6782;55.904;13.396;2023-11-19T14:20:12;99855.06;;;4.77;100.00
13422;BME280;6782;55.904;13.396;2023-11-19T14:23:01;99849.81;;;4.80;100.00
13422;BME280;6782;55.904;13.396;2023-11-19T14:25:48;99851.63;;;4.75;100.00
13422;BME280;6782;55.904;13.396;2023-11-19T14:28:37;99855.94;;;4.77;100.00
13422;BME280;6782;55.904;13.396;2023-11-19T14:31:27;99852.53;;;4.72;100.00
13422;BME280;6782;55.904;13.396;2023-11-19T14:34:15;99862.00;;;4.78;100.00
13422;BME280;6782;55.904;13.396;2023-11-19T14:37:02;99855.09;;;4.74;100.00
13422;BME280;6782;55.904;13.396;2023-11-19T14:39:50;99845.41;;;4.80;100.00
13422;BME280;6782;55.904;13.396;2023-11-19T14:42:37;99845.47;;;4.79;100.00
13422;BME280;6782;55.904;13.396;2023-11-19T14:45:27;99850.66;;;4.80;100.00
13422;BME280;6782;55.904;13.396;2023-11-19T14:48:15;99846.41;;;4.75;100.00
13422;BME280;6782;55.904;13.396;2023-11-19T14:51:11;99853.38;;;4.73;100.00
13422;BME280;6782;55.904;13.396;2023-11-19T14:53:59;99855.06;;;4.77;100.00
13422;BME280;6782;55.904;13.396;2023-11-19T14:56:48;99860.25;;;4.80;100.00
13422;BME280;6782;55.904;13.396;2023-11-19T14:59:37;99849.91;;;4.71;100.00
13422;BME280;6782;55.904;13.396;2023-11-19T15:02:29;99860.28;;;4.77;100.00
13422;BME280;6782;55.904;13.396;2023-11-19T15:05:17;99857.75;;;4.71;100.00